Norberto de la Riestra, Argentina
Current Conditions -  °F | °C
As of 4:30 AM on Friday 24 Oct 2014 (Local Time) from SAEZ Reporting Station
Broken Clouds Broken Clouds  
Wind Chill: 68°   Ceiling: 700
Heat Index: 68°   Visibility: 5mi
Dew Point: 63°   Wind: 6mph
Humidity: 83%   Direction: 110°ESE
Pressure: 29.97"   Gusts: NA
Location:  35.27°S, 59.77°W
Report Text: SAEZ 240730Z 11005KT 8000 BKN007 20/17 Q1015
Loading
Personal Weather Stations






























Interactive Weather Map
Tropical Storm Tracking
New forecast layout! Learn more

10-Day Weather Forecast

Advertisements
Track Severe Weather on mobile